Main page
METAR-TAF:

METAR-TAF

Airports :

Šiauliai International Airport

Šiauliai, Lithuania

latitude: 55-53-38N, longitude: 023-23-42E, elevation: 135 m

Current weather observation

The report was made 10 minutes ago, at 20:20 UTC
Calm wind
Temperature 19°C
Humidity 88%
Pressure 1009 hPa
Visibility 10 km or more
no clouds below 1500 m and no cumulonimbus

METAR: EYSA 282020Z 00000KT CAVOK 19/17 Q1009 BLU NOSIG

Time: 23:30 (20:30 UTC)

Forecast

The report was made 3 hours and 19 minutes ago, at 17:11 UTC
Forecast valid from 28 at 18 UTC to 29 at 03 UTC
Wind 5 kt from variable directions
Visibility: 9000 m
Scattered clouds at a height of 3500 ft
Temporary
from 28 at 21 UTC to 29 at 03 UTC
Wind 20 kt from variable directions
Visibility: 3000 m
Scattered clouds at a height of 500 ft
Broken clouds at a height of 2000 ft, Cumulonimbus.
thunderstorm, rain

TAF: EYSA 281711Z 2818/2903 VRB05KT 9000 SCT035 TEMPO 2821/2903 VRB20KT 3000 TSRA SCT005 BKN020CB

Weather observations and forecasts of more than 4000 airports (METAR and TAF reports).

The available stations are represented by yellow and red dots on the map.

Hover mouse over dot to see the name of the station.

Then click to see weather observations and forecasts.

To change the map : click on the green buttons with a black cross to zoom in, on the green button with a dash to zoom out, or on the green arrows for adjacent maps.


METAR-TAF: